Overseas Long Beach — WAAT — position and weather

sailwx.info

Track history (hours):
 
Tides and Currents Weather Stations Pressure Air Temp Water Temp Dewpoint Dewpoint Depression Visibility Wind Speed Wind Dir Waves Ship Positions

Overseas Long Beach

Owner: ASC Leasing II, Inc., Philadelphia, PA. More information available from US FCC via Universal Licensing System and Coast Guard Vessel Documentation Center.

Last reported at 2016-May-01 18:33 UTC. Time now 2016-May-03 10:39 UTC.
Position N 29°22' W 094°48'.

Length 181 m; draft 11 m.

Type: Tanker. MMSI: 367703000.

Date/timePositionNaut miles runAvg speedWind from/ knotsBaromVisibWave heightAir tempDewpointWater temp
2016-May-01 18:33N 29°22' W 094°48'1110.7
2016-May-01 17:33N 29°31' W 094°53'1110.7
2016-May-01 16:33N 29°41' W 094°59'8 7.7
2016-May-01 15:33N 29°46' W 095°05'5 5.3
2016-May-01 14:33N 29°45' W 095°11'  
2016-Apr-27 07:17N 29°45' W 095°11'1 0.9
2016-Apr-27 06:33N 29°44' W 095°12'5 4.8
2016-Apr-27 05:33N 29°44' W 095°07'6 5.9
2016-Apr-27 04:33N 29°42' W 095°00'1111.4
2016-Apr-27 03:34N 29°32' W 094°54'1313.0
2016-Apr-27 02:33N 29°21' W 094°47'1512.4
2016-Apr-27 01:22N 29°15' W 094°32'6415.0
2016-Apr-26 21:06N 28°38' W 093°32'63814.6
2016-Apr-25 01:32N 24°17' W 082°42'1515.5
2016-Apr-25 00:34N 24°18' W 082°25'15112.2
2016-Apr-24 12:09N 25°34' W 080°01'813.3
2016-Apr-24 11:33N 25°42' W 080°01'1413.8
2016-Apr-24 10:33N 25°56' W 079°59'1514.6
2016-Apr-24 09:33N 26°11' W 079°59'1414.1
2016-Apr-24 08:33N 26°25' W 079°58'1412.9
2016-Apr-24 07:27N 26°39' W 079°58'1213.3
2016-Apr-24 06:33N 26°51' W 079°58'1413.9
2016-Apr-24 05:34N 27°05' W 079°58'  
Track history (hours):
 
Tides and Currents Weather Stations Pressure Air Temp Water Temp Dewpoint Dewpoint Depression Visibility Wind Speed Wind Dir Waves Ship Positions

Overseas Long Beach

Owner: ASC Leasing II, Inc., Philadelphia, PA. More information available from US FCC via Universal Licensing System and Coast Guard Vessel Documentation Center.

Last reported at 2016-May-01 18:33 UTC. Time now 2016-May-03 10:39 UTC.
Position N 29°22' W 094°48'.

Length 181 m; draft 11 m.

Type: Tanker. MMSI: 367703000.

Date/timePositionNaut miles runAvg speedWind from/ knotsBaromVisibWave heightAir tempDewpointWater temp
2016-May-01 18:33N 29°22' W 094°48'1110.7
2016-May-01 17:33N 29°31' W 094°53'1110.7
2016-May-01 16:33N 29°41' W 094°59'8 7.7
2016-May-01 15:33N 29°46' W 095°05'5 5.3
2016-May-01 14:33N 29°45' W 095°11'  
2016-Apr-27 07:17N 29°45' W 095°11'1 0.9
2016-Apr-27 06:33N 29°44' W 095°12'5 4.8
2016-Apr-27 05:33N 29°44' W 095°07'6 5.9
2016-Apr-27 04:33N 29°42' W 095°00'1111.4
2016-Apr-27 03:34N 29°32' W 094°54'1313.0
2016-Apr-27 02:33N 29°21' W 094°47'1512.4
2016-Apr-27 01:22N 29°15' W 094°32'6415.0
2016-Apr-26 21:06N 28°38' W 093°32'63814.6
2016-Apr-25 01:32N 24°17' W 082°42'1515.5
2016-Apr-25 00:34N 24°18' W 082°25'15112.2
2016-Apr-24 12:09N 25°34' W 080°01'813.3
2016-Apr-24 11:33N 25°42' W 080°01'1413.8
2016-Apr-24 10:33N 25°56' W 079°59'1514.6
2016-Apr-24 09:33N 26°11' W 079°59'1414.1
2016-Apr-24 08:33N 26°25' W 079°58'1412.9
2016-Apr-24 07:27N 26°39' W 079°58'1213.3
2016-Apr-24 06:33N 26°51' W 079°58'1413.9
2016-Apr-24 05:34N 27°05' W 079°58'  

Dump ship's entire track history